Time;durP1;ratioP1;P1;durP2;ratioP2;P2;SDS_P1;SDS_P2;PMS_P1;PMS_P2;Temp;Humidity;BMP_temperature;BMP_pressure;BME280_temperature;BME280_humidity;BME280_pressure;Samples;Min_cycle;Max_cycle;Signal;HPM_P1;HPM_P2
2020/12/22 00:01:54;;;;;;;188.53;120.53;;;;;;;0.14;88.44;99620.06;124783;1100;65086;-79
2020/12/22 00:04:20;;;;;;;194.60;126.30;;;;;;;0.12;88.40;99615.73;124769;1098;65156;-79
2020/12/22 00:06:47;;;;;;;191.77;127.30;;;;;;;0.09;87.78;99607.92;124693;1100;65156;-79
2020/12/22 00:09:13;;;;;;;194.00;126.00;;;;;;;0.06;88.08;99613.21;124794;1099;65140;-79
2020/12/22 00:11:40;;;;;;;194.13;120.23;;;;;;;0.04;88.61;99604.50;124723;1100;65269;-79
2020/12/22 00:14:06;;;;;;;179.15;116.20;;;;;;;0.00;88.04;99606.31;124785;1099;65127;-79
2020/12/22 00:16:36;;;;;;;165.93;109.67;;;;;;;0.02;88.32;99612.37;124695;1100;65263;-79
2020/12/22 00:19:04;;;;;;;187.40;116.47;;;;;;;-0.04;88.28;99610.70;124766;1098;65182;-79
2020/12/22 00:21:34;;;;;;;184.97;122.57;;;;;;;-0.03;88.29;99612.45;124766;1099;65169;-79
2020/12/22 00:24:01;;;;;;;186.63;123.57;;;;;;;-0.03;88.08;99612.45;124742;1100;65153;-79
2020/12/22 00:26:27;;;;;;;185.03;120.47;;;;;;;-0.02;88.53;99615.94;124754;1100;65222;-79
2020/12/22 00:28:54;;;;;;;173.57;116.63;;;;;;;-0.05;88.57;99621.23;124770;1099;65127;-78
2020/12/22 00:31:21;;;;;;;173.60;110.73;;;;;;;-0.07;87.91;99617.75;124760;1100;65226;-79
2020/12/22 00:33:48;;;;;;;155.67;105.67;;;;;;;-0.12;88.30;99609.09;124737;1100;65156;-80
2020/12/22 00:36:15;;;;;;;156.10;102.47;;;;;;;-0.11;87.98;99611.67;124858;1098;65153;-80
2020/12/22 00:38:44;;;;;;;159.97;105.73;;;;;;;-0.07;88.50;99607.27;124791;1100;65133;-81
2020/12/22 00:41:14;;;;;;;170.53;115.03;;;;;;;-0.05;87.80;99610.75;124848;1098;65134;-78
2020/12/22 00:43:43;;;;;;;166.67;106.77;;;;;;;-0.07;87.87;99604.66;124815;1101;65194;-80
2020/12/22 00:46:14;;;;;;;170.13;109.50;;;;;;;-0.13;87.73;99607.34;124810;1100;65152;-79
2020/12/22 00:48:45;;;;;;;132.63;95.37;;;;;;;-0.21;88.12;99604.85;124775;1099;65188;-79
2020/12/22 00:51:13;;;;;;;139.07;93.97;;;;;;;-0.26;87.82;99606.66;124789;1100;65140;-79
2020/12/22 00:53:41;;;;;;;130.27;89.43;;;;;;;-0.29;88.06;99601.44;124756;1100;65130;-79
2020/12/22 00:56:11;;;;;;;128.45;87.75;;;;;;;-0.31;87.97;99601.48;124760;1100;65140;-79
2020/12/22 00:58:38;;;;;;;150.67;98.83;;;;;;;-0.29;88.51;99596.20;124769;1100;65174;-79
2020/12/22 01:01:06;;;;;;;151.83;100.83;;;;;;;-0.30;88.11;99590.10;124782;1099;65237;-79
2020/12/22 01:03:32;;;;;;;135.40;94.20;;;;;;;-0.31;88.42;99592.77;124869;1098;65153;-79
2020/12/22 01:05:59;;;;;;;137.07;92.37;;;;;;;-0.36;87.84;99594.58;124833;1098;65189;-79
2020/12/22 01:08:25;;;;;;;123.57;86.13;;;;;;;-0.35;88.73;99591.92;124819;1098;65086;-79
2020/12/22 01:10:52;;;;;;;122.97;87.70;;;;;;;-0.34;88.65;99612.00;124723;1100;65246;-79
2020/12/22 01:13:18;;;;;;;130.97;91.70;;;;;;;-0.32;88.30;99599.73;124827;1098;65147;-79
2020/12/22 01:15:45;;;;;;;146.00;97.10;;;;;;;-0.25;88.95;99595.28;124748;1098;65226;-79
2020/12/22 01:18:11;;;;;;;150.80;93.12;;;;;;;-0.21;88.78;99583.90;124861;1098;65198;-78
2020/12/22 01:20:38;;;;;;;148.75;97.35;;;;;;;-0.20;88.42;99579.52;124847;1098;65292;-79
2020/12/22 01:23:04;;;;;;;132.43;90.60;;;;;;;-0.22;88.51;99576.91;124872;1098;65607;-81
2020/12/22 01:25:31;;;;;;;131.85;91.75;;;;;;;-0.24;88.26;99571.71;124726;1098;65201;-79
2020/12/22 01:27:57;;;;;;;130.35;88.85;;;;;;;-0.28;87.86;99564.77;124855;1100;65162;-79
2020/12/22 01:30:23;;;;;;;124.62;86.02;;;;;;;-0.31;88.42;99563.95;124755;1100;65641;-79
2020/12/22 01:32:51;;;;;;;144.03;94.80;;;;;;;-0.36;88.02;99556.16;124708;1100;65349;-79
2020/12/22 01:35:17;;;;;;;142.13;96.57;;;;;;;-0.38;88.28;99562.30;124726;1100;65280;-79
2020/12/22 01:37:44;;;;;;;134.93;93.10;;;;;;;-0.46;87.75;99565.02;124736;1100;65105;-78
2020/12/22 01:40:10;;;;;;;124.00;85.40;;;;;;;-0.51;88.18;99567.69;124739;1100;65533;-78
2020/12/22 01:42:42;;;;;;;119.90;82.80;;;;;;;-0.53;88.22;99563.35;124835;1098;65162;-79
2020/12/22 01:45:10;;;;;;;117.50;83.00;;;;;;;-0.55;88.48;99560.77;124815;1099;65150;-79
2020/12/22 01:47:44;;;;;;;122.60;84.10;;;;;;;-0.53;88.50;99560.73;124912;1098;65185;-79
2020/12/22 01:50:17;;;;;;;137.57;89.70;;;;;;;-0.54;88.37;99561.63;124926;1100;65202;-79
2020/12/22 01:52:49;;;;;;;139.00;91.23;;;;;;;-0.47;88.22;99558.92;124854;1099;65162;-79
2020/12/22 01:55:15;;;;;;;128.77;85.43;;;;;;;-0.44;87.98;99563.25;124822;1099;65198;-79
2020/12/22 01:57:43;;;;;;;125.30;82.87;;;;;;;-0.44;88.62;99550.16;124693;1100;65170;-79
2020/12/22 02:00:09;;;;;;;124.20;85.10;;;;;;;-0.42;87.93;99540.53;124854;1099;65236;-79
2020/12/22 02:02:37;;;;;;;122.33;84.07;;;;;;;-0.39;88.03;99537.88;124684;1101;65656;-79
2020/12/22 02:05:04;;;;;;;126.33;86.13;;;;;;;-0.36;87.87;99531.73;124842;1099;65156;-79
2020/12/22 02:07:31;;;;;;;143.63;84.90;;;;;;;-0.42;88.42;99539.64;124744;1100;65109;-79
2020/12/22 02:09:58;;;;;;;134.97;90.30;;;;;;;-0.43;88.00;99532.69;124823;1099;65154;-79
2020/12/22 02:12:24;;;;;;;130.43;87.23;;;;;;;-0.44;87.98;99534.45;124817;1100;65197;-79
2020/12/22 02:14:51;;;;;;;130.00;84.70;;;;;;;-0.46;88.58;99518.75;124755;1100;65621;-79
2020/12/22 02:17:17;;;;;;;130.60;84.77;;;;;;;-0.45;87.98;99523.11;124832;1100;65115;-79
2020/12/22 02:19:44;;;;;;;133.40;87.60;;;;;;;-0.44;88.58;99526.59;124808;1099;65130;-80
2020/12/22 02:22:11;;;;;;;133.43;89.13;;;;;;;-0.46;88.56;99517.89;124820;1099;65190;-80
2020/12/22 02:24:38;;;;;;;137.97;84.60;;;;;;;-0.41;88.18;99513.45;124863;1098;65210;-81
2020/12/22 02:27:05;;;;;;;129.73;87.53;;;;;;;-0.40;87.70;99525.64;124854;1098;65229;-79
2020/12/22 02:29:32;;;;;;;125.70;82.17;;;;;;;-0.38;88.57;99512.55;124734;1100;65156;-80
2020/12/22 02:31:59;;;;;;;118.60;78.63;;;;;;;-0.35;88.53;99504.64;124860;1098;65153;-80
2020/12/22 02:34:26;;;;;;;125.03;82.63;;;;;;;-0.30;88.29;99511.53;124833;1099;65299;-81
2020/12/22 02:36:53;;;;;;;129.73;85.37;;;;;;;-0.28;87.85;99499.30;124876;1101;65223;-80
2020/12/22 02:39:20;;;;;;;130.23;85.23;;;;;;;-0.27;88.19;99498.39;124859;1101;65162;-80
2020/12/22 02:41:46;;;;;;;131.13;86.67;;;;;;;-0.29;87.80;99494.95;124905;1099;65536;-79
2020/12/22 02:44:13;;;;;;;121.03;82.40;;;;;;;-0.35;87.50;99484.55;124832;1100;65607;-79
2020/12/22 02:46:39;;;;;;;124.73;79.57;;;;;;;-0.31;88.01;99486.25;124826;1099;65160;-79
2020/12/22 02:49:06;;;;;;;125.60;82.20;;;;;;;-0.27;88.52;99480.06;124817;1099;65134;-81
2020/12/22 02:51:33;;;;;;;133.80;85.33;;;;;;;-0.23;87.98;99471.28;124734;1100;65204;-80
2020/12/22 02:54:00;;;;;;;141.13;91.33;;;;;;;-0.24;87.72;99471.29;124844;1100;65146;-79
2020/12/22 02:56:26;;;;;;;137.40;89.27;;;;;;;-0.28;87.58;99474.86;124872;1099;65130;-80
2020/12/22 02:58:53;;;;;;;132.20;85.43;;;;;;;-0.34;87.46;99469.70;124815;1098;65511;-80
2020/12/22 03:01:19;;;;;;;122.30;82.83;;;;;;;-0.34;88.10;99480.17;124741;1100;65213;-81
2020/12/22 03:03:46;;;;;;;123.97;82.10;;;;;;;-0.38;88.06;99479.36;124776;1100;65189;-80
2020/12/22 03:06:13;;;;;;;128.93;86.77;;;;;;;-0.36;87.51;99474.12;124859;1099;65129;-80
2020/12/22 03:08:39;;;;;;;148.50;93.60;;;;;;;-0.36;87.78;99471.50;124814;1099;65146;-80
2020/12/22 03:11:07;;;;;;;145.37;92.60;;;;;;;-0.39;88.28;99474.17;124775;1099;65300;-79
2020/12/22 03:13:33;;;;;;;142.00;91.40;;;;;;;-0.37;87.83;99469.75;124812;1098;65153;-79
2020/12/22 03:15:59;;;;;;;133.63;87.03;;;;;;;-0.36;88.25;99461.02;124735;1100;65312;-79
2020/12/22 03:18:26;;;;;;;123.90;81.55;;;;;;;-0.37;87.77;99454.03;124758;1100;65140;-79
2020/12/22 03:20:52;;;;;;;124.80;80.20;;;;;;;-0.28;88.69;99446.05;124825;1098;65229;-79
2020/12/22 03:23:19;;;;;;;126.00;85.53;;;;;;;-0.19;88.45;99452.89;124792;1098;65099;-79
2020/12/22 03:25:45;;;;;;;134.10;87.00;;;;;;;-0.14;87.97;99453.69;124766;1100;65179;-79
2020/12/22 03:28:12;;;;;;;139.95;89.50;;;;;;;-0.19;87.59;99447.66;124804;1098;65246;-79
2020/12/22 03:30:38;;;;;;;129.70;84.70;;;;;;;-0.25;87.54;99438.14;124814;1100;65176;-79
2020/12/22 03:33:05;;;;;;;125.70;81.85;;;;;;;-0.25;88.17;99448.62;124784;1099;65525;-80
2020/12/22 03:35:31;;;;;;;117.80;81.90;;;;;;;-0.26;87.51;99445.14;124803;1099;65179;-78
2020/12/22 03:37:58;;;;;;;136.77;88.87;;;;;;;-0.27;87.51;99440.77;124832;1098;65173;-80
2020/12/22 03:40:26;;;;;;;128.20;86.57;;;;;;;-0.23;87.92;99442.47;124771;1098;65136;-79
2020/12/22 03:42:53;;;;;;;142.10;91.45;;;;;;;-0.24;88.08;99434.63;124836;1098;65158;-80
2020/12/22 03:45:21;;;;;;;135.37;91.10;;;;;;;-0.26;88.08;99426.81;124780;1100;65140;-80
2020/12/22 03:47:47;;;;;;;135.57;87.37;;;;;;;-0.28;87.32;99431.20;124814;1100;65357;-80
2020/12/22 03:50:14;;;;;;;124.93;82.73;;;;;;;-0.30;87.87;99430.35;124738;1100;65139;-80
2020/12/22 03:52:40;;;;;;;135.43;85.90;;;;;;;-0.23;88.00;99429.37;124792;1098;65150;-80
2020/12/22 03:55:06;;;;;;;131.78;87.25;;;;;;;-0.22;88.01;99415.38;124798;1098;65134;-80
2020/12/22 03:57:33;;;;;;;140.75;88.20;;;;;;;-0.16;87.49;99393.45;124762;1099;65136;-80
2020/12/22 04:00:00;;;;;;;135.27;85.90;;;;;;;-0.11;87.90;99388.14;124709;1098;65285;-80
2020/12/22 04:02:26;;;;;;;123.35;80.55;;;;;;;-0.13;87.75;99382.05;124729;1100;65156;-80
2020/12/22 04:04:54;;;;;;;123.20;80.37;;;;;;;-0.15;87.91;99379.48;124871;1100;65181;-80
2020/12/22 04:07:20;;;;;;;128.80;82.57;;;;;;;-0.18;88.00;99390.02;124876;1098;65246;-80
2020/12/22 04:09:47;;;;;;;140.90;89.53;;;;;;;-0.22;87.35;99397.04;124809;1099;65631;-80
2020/12/22 04:12:13;;;;;;;138.77;90.77;;;;;;;-0.21;88.02;99390.07;124839;1098;65304;-80
2020/12/22 04:14:40;;;;;;;132.30;84.00;;;;;;;-0.16;87.93;99393.45;124851;1098;65172;-80
2020/12/22 04:17:06;;;;;;;126.47;81.87;;;;;;;-0.14;87.52;99378.58;124832;1100;65146;-80
2020/12/22 04:19:33;;;;;;;121.95;80.47;;;;;;;-0.12;87.98;99379.42;124849;1099;65239;-80
2020/12/22 04:21:59;;;;;;;132.37;84.40;;;;;;;-0.12;87.38;99389.04;124846;1100;65182;-80
2020/12/22 04:24:26;;;;;;;126.27;86.57;;;;;;;-0.09;87.57;99391.61;125015;1098;65284;-80
2020/12/22 04:26:52;;;;;;;141.00;89.97;;;;;;;-0.10;87.99;99397.75;125107;1100;65169;-80
2020/12/22 04:29:18;;;;;;;128.15;82.80;;;;;;;-0.04;88.13;99397.63;124857;1100;65333;-80
2020/12/22 04:31:45;;;;;;;120.60;80.80;;;;;;;-0.01;87.55;99393.19;124958;1100;65150;-80
2020/12/22 04:34:11;;;;;;;117.63;76.37;;;;;;;-0.02;88.03;99378.38;124786;1100;65187;-80
2020/12/22 04:36:38;;;;;;;121.37;79.10;;;;;;;0.01;88.01;99372.21;124805;1100;65134;-80
2020/12/22 04:39:05;;;;;;;125.72;84.03;;;;;;;0.01;88.03;99368.73;124706;1101;65112;-81
2020/12/22 04:41:32;;;;;;;125.17;83.97;;;;;;;0.01;87.94;99366.12;124809;1100;65239;-78
2020/12/22 04:44:00;;;;;;;117.50;77.20;;;;;;;0.00;87.78;99360.02;124716;1099;65153;-79
2020/12/22 04:46:28;;;;;;;105.97;73.13;;;;;;;0.03;87.23;99356.45;124740;1100;65159;-79
2020/12/22 04:48:57;;;;;;;106.10;73.87;;;;;;;0.02;87.82;99355.59;124726;1099;65136;-79
2020/12/22 04:51:25;;;;;;;110.75;77.78;;;;;;;0.05;87.90;99347.66;124807;1100;65204;-79
2020/12/22 04:53:52;;;;;;;119.70;79.90;;;;;;;0.01;87.24;99360.87;124730;1100;65108;-79
2020/12/22 04:56:19;;;;;;;115.07;77.60;;;;;;;-0.06;87.23;99353.11;124755;1100;65159;-80
2020/12/22 04:58:46;;;;;;;118.90;78.57;;;;;;;-0.09;87.50;99347.92;124723;1101;65159;-79
2020/12/22 05:01:15;;;;;;;116.20;76.93;;;;;;;-0.11;87.15;99347.08;124736;1100;65204;-79
2020/12/22 05:03:42;;;;;;;112.25;75.40;;;;;;;-0.12;87.10;99349.75;124836;1100;65153;-79
2020/12/22 05:06:08;;;;;;;106.30;71.05;;;;;;;-0.05;87.45;99344.38;124698;1101;65150;-79
2020/12/22 05:08:35;;;;;;;110.97;76.90;;;;;;;0.04;87.57;99345.09;124750;1100;65080;-79
2020/12/22 05:11:02;;;;;;;113.40;78.20;;;;;;;0.08;87.87;99344.13;124702;1099;65232;-79
2020/12/22 05:13:28;;;;;;;108.50;74.70;;;;;;;0.12;87.57;99332.70;124723;1100;65092;-79
2020/12/22 05:15:54;;;;;;;104.30;71.70;;;;;;;0.13;87.49;99342.28;124728;1100;65150;-79
2020/12/22 05:18:25;;;;;;;100.90;70.03;;;;;;;0.14;87.32;99333.55;124761;1099;65130;-79
2020/12/22 05:20:55;;;;;;;102.83;70.07;;;;;;;0.17;87.69;99334.34;124751;1100;65236;-79
2020/12/22 05:23:23;;;;;;;112.43;76.23;;;;;;;0.20;87.56;99329.03;124772;1098;65599;-79
2020/12/22 05:25:50;;;;;;;113.97;76.07;;;;;;;0.20;87.79;99329.03;124727;1100;65166;-79
2020/12/22 05:28:19;;;;;;;123.63;81.33;;;;;;;0.19;87.60;99329.08;124683;1100;65166;-79
2020/12/22 05:30:48;;;;;;;111.00;73.65;;;;;;;0.16;87.13;99331.77;124805;1099;65083;-79
2020/12/22 05:33:14;;;;;;;105.70;70.40;;;;;;;0.20;87.36;99336.03;124768;1099;65252;-79
2020/12/22 05:35:46;;;;;;;96.00;69.07;;;;;;;0.24;87.80;99332.48;124689;1100;65182;-79
2020/12/22 05:38:14;;;;;;;106.80;73.77;;;;;;;0.27;87.66;99319.30;124750;1098;65239;-79
2020/12/22 05:40:42;;;;;;;114.10;79.83;;;;;;;0.30;87.11;99315.77;124798;1100;65186;-80
2020/12/22 05:43:10;;;;;;;120.93;82.47;;;;;;;0.27;87.82;99316.69;124741;1099;65176;-80
2020/12/22 05:45:43;;;;;;;111.47;78.00;;;;;;;0.25;86.98;99321.09;124827;1100;65140;-80
2020/12/22 05:48:14;;;;;;;105.45;72.85;;;;;;;0.23;87.42;99316.77;124847;1098;65146;-80
2020/12/22 05:50:50;;;;;;;96.63;67.10;;;;;;;0.22;87.00;99308.05;124716;1100;65306;-80
2020/12/22 05:53:24;;;;;;;100.13;71.50;;;;;;;0.28;87.63;99321.02;124862;1100;65172;-80
2020/12/22 05:55:50;;;;;;;106.47;73.63;;;;;;;0.34;87.34;99309.55;124847;1099;65162;-79
2020/12/22 05:58:18;;;;;;;105.77;72.47;;;;;;;0.30;87.48;99302.66;124874;1099;65130;-79
2020/12/22 06:00:45;;;;;;;100.50;68.50;;;;;;;0.25;87.33;99294.02;124863;1098;65140;-79
2020/12/22 06:03:13;;;;;;;95.17;62.03;;;;;;;0.28;87.63;99288.71;124877;1099;65248;-79
2020/12/22 06:05:43;;;;;;;87.90;59.00;;;;;;;0.27;86.99;99281.75;124897;1098;65156;-79
2020/12/22 06:08:11;;;;;;;89.17;59.40;;;;;;;0.21;87.39;99277.47;124865;1098;65186;-79
2020/12/22 06:10:40;;;;;;;94.20;62.70;;;;;;;0.17;87.12;99274.06;124942;1099;65133;-79
2020/12/22 06:13:08;;;;;;;100.63;66.60;;;;;;;0.15;86.94;99269.75;124736;1100;65150;-79
2020/12/22 06:15:35;;;;;;;95.17;61.03;;;;;;;0.14;87.53;99262.80;124866;1099;65322;-79
2020/12/22 06:18:03;;;;;;;93.63;63.43;;;;;;;0.11;87.44;99253.23;124805;1098;65143;-79
2020/12/22 06:20:31;;;;;;;89.15;60.15;;;;;;;0.14;87.21;99254.93;124865;1098;65140;-79
2020/12/22 06:23:05;;;;;;;91.23;61.43;;;;;;;0.16;87.04;99258.39;124866;1100;65150;-80
2020/12/22 06:25:33;;;;;;;102.97;66.53;;;;;;;0.15;87.30;99256.64;124816;1101;65137;-79
2020/12/22 06:28:00;;;;;;;104.30;70.00;;;;;;;0.15;87.23;99261.88;124936;1099;65229;-80
2020/12/22 06:30:36;;;;;;;103.90;71.30;;;;;;;0.18;87.59;99262.67;124762;1101;65186;-82
2020/12/22 06:33:20;;;;;;;110.07;75.47;;;;;;;0.20;87.45;99255.65;124756;1101;65157;-80
2020/12/22 06:36:08;;;;;;;110.37;74.53;;;;;;;0.20;87.25;99250.41;124838;1101;65098;-82
2020/12/22 06:38:54;;;;;;;102.30;70.30;;;;;;;0.26;87.57;99245.93;124789;1101;65169;-80
2020/12/22 06:41:33;;;;;;;107.10;69.50;;;;;;;0.30;87.77;99237.98;124750;1101;65150;-79
2020/12/22 06:44:18;;;;;;;115.40;76.70;;;;;;;0.34;87.69;99233.52;124921;1099;65150;-80
2020/12/22 06:46:58;;;;;;;121.17;82.33;;;;;;;0.35;87.78;99230.88;124900;1098;65166;-80
2020/12/22 06:49:43;;;;;;;;;;;;;;;0.38;87.31;99235.20;124838;1101;65169;-80
2020/12/22 06:52:35;;;;;;;120.17;75.40;;;;;;;0.39;87.17;99240.39;124797;1101;65134;-80
2020/12/22 06:55:07;;;;;;;109.10;73.43;;;;;;;0.43;87.17;99241.20;124757;1101;65246;-80
2020/12/22 06:57:50;;;;;;;114.57;74.87;;;;;;;0.52;87.72;99237.50;124791;1101;65121;-80
2020/12/22 07:00:26;;;;;;;119.40;80.35;;;;;;;0.55;87.19;99230.42;124883;1101;65156;-80
2020/12/22 07:03:09;;;;;;;122.90;81.90;;;;;;;0.59;87.18;99237.34;124790;1101;65185;-80
2020/12/22 07:05:44;;;;;;;122.50;81.63;;;;;;;0.65;87.08;99241.58;124814;1101;65239;-80
2020/12/22 07:08:14;;;;;;;122.85;79.70;;;;;;;0.68;87.04;99238.87;124837;1101;65253;-80
2020/12/22 07:10:44;;;;;;;114.47;77.07;;;;;;;0.70;87.31;99242.34;124913;1100;65218;-80
2020/12/22 07:13:12;;;;;;;107.20;75.00;;;;;;;0.73;87.01;99234.39;124876;1098;65136;-80
2020/12/22 07:15:47;;;;;;;115.25;78.40;;;;;;;0.76;87.21;99239.56;124954;1099;65246;-80
2020/12/22 07:18:19;;;;;;;113.70;80.60;;;;;;;0.76;86.52;99236.08;124800;1101;65130;-80
2020/12/22 07:20:47;;;;;;;125.85;85.95;;;;;;;0.76;86.83;99234.31;124744;1101;65304;-79
2020/12/22 07:23:14;;;;;;;115.30;79.60;;;;;;;0.78;86.67;99229.90;124764;1101;65188;-80
2020/12/22 07:25:42;;;;;;;108.90;74.60;;;;;;;0.83;86.94;99233.28;124783;1101;65149;-79
2020/12/22 07:28:10;;;;;;;100.33;70.37;;;;;;;0.80;86.77;99220.23;124876;1099;65190;-79
2020/12/22 07:30:37;;;;;;;103.57;71.97;;;;;;;0.84;86.97;99221.02;124914;1100;65112;-81
2020/12/22 07:33:05;;;;;;;105.93;71.97;;;;;;;0.86;86.84;99216.60;124704;1100;65224;-79
2020/12/22 07:35:32;;;;;;;110.35;80.40;;;;;;;0.87;86.67;99213.95;124743;1100;65147;-79
2020/12/22 07:38:02;;;;;;;118.23;81.50;;;;;;;0.90;86.59;99202.52;124807;1100;65165;-79
2020/12/22 07:40:28;;;;;;;122.45;80.17;;;;;;;0.90;86.19;99196.42;124820;1098;65153;-79
2020/12/22 07:43:09;;;;;;;114.63;78.57;;;;;;;0.91;86.81;99193.74;124795;1100;65163;-79
2020/12/22 07:45:36;;;;;;;110.17;76.27;;;;;;;0.91;86.15;99190.27;124794;1099;65297;-80
2020/12/22 07:48:06;;;;;;;113.95;75.00;;;;;;;0.91;86.67;99191.12;124812;1100;65156;-80
2020/12/22 07:50:35;;;;;;;106.30;73.40;;;;;;;0.95;86.39;99187.53;124860;1099;65153;-79
2020/12/22 07:53:02;;;;;;;111.90;82.27;;;;;;;0.92;86.53;99186.72;124858;1100;65143;-79
2020/12/22 07:55:41;;;;;;;119.90;84.83;;;;;;;0.92;86.25;99184.10;124839;1100;65082;-79
2020/12/22 07:58:08;;;;;;;124.83;90.50;;;;;;;0.88;86.60;99176.31;124718;1100;65128;-79
2020/12/22 08:00:36;;;;;;;124.75;87.50;;;;;;;0.87;86.73;99168.50;124814;1100;65252;-81
2020/12/22 08:03:16;;;;;;;111.73;81.37;;;;;;;0.88;86.46;99160.57;124829;1098;65182;-80
2020/12/22 08:06:03;;;;;;;115.20;82.03;;;;;;;0.92;86.34;99160.48;124795;1101;65143;-80
2020/12/22 08:08:30;;;;;;;114.60;80.83;;;;;;;0.95;86.64;99144.66;124914;1100;65086;-80
2020/12/22 08:10:57;;;;;;;119.27;89.03;;;;;;;0.95;86.73;99142.04;124756;1101;65189;-79
2020/12/22 08:13:28;;;;;;;145.33;103.93;;;;;;;0.98;86.91;99142.84;124697;1101;65181;-79
2020/12/22 08:15:57;;;;;;;240.90;154.87;;;;;;;0.99;86.53;99136.68;124745;1101;65153;-79
2020/12/22 08:18:25;;;;;;;271.82;168.28;;;;;;;1.01;86.74;99132.27;124849;1098;65127;-80
2020/12/22 08:20:56;;;;;;;264.15;151.35;;;;;;;1.01;86.88;99132.27;124683;1101;65205;-80
2020/12/22 08:23:24;;;;;;;191.65;119.60;;;;;;;1.03;86.63;99135.71;124709;1101;65173;-81
2020/12/22 08:25:51;;;;;;;122.70;83.00;;;;;;;1.09;87.02;99135.55;124729;1101;65131;-80
2020/12/22 08:28:27;;;;;;;115.73;78.67;;;;;;;1.18;86.31;99134.42;124924;1100;65080;-82
2020/12/22 08:30:54;;;;;;;122.95;86.95;;;;;;;1.24;86.57;99126.41;124971;1101;65156;-79
2020/12/22 08:33:22;;;;;;;129.37;95.27;;;;;;;1.29;86.93;99119.27;124780;1100;65239;-80
2020/12/22 08:35:50;;;;;;;132.90;96.97;;;;;;;1.31;86.53;99120.06;124733;1101;65172;-82
2020/12/22 08:38:27;;;;;;;131.63;94.13;;;;;;;1.34;86.57;99107.77;124784;1101;65271;-79
2020/12/22 08:40:56;;;;;;;121.60;88.45;;;;;;;1.32;85.98;99092.08;124805;1100;65229;-79
2020/12/22 08:43:24;;;;;;;122.77;85.20;;;;;;;1.30;85.99;99089.48;124758;1101;65245;-79
2020/12/22 08:45:52;;;;;;;112.77;82.97;;;;;;;1.29;86.31;99093.02;124792;1101;65136;-79
2020/12/22 08:48:18;;;;;;;118.00;83.20;;;;;;;1.33;86.13;99083.28;124816;1099;65160;-79
2020/12/22 08:50:50;;;;;;;127.40;93.83;;;;;;;1.41;86.10;99089.17;124730;1101;65293;-79
2020/12/22 08:53:17;;;;;;;129.03;92.53;;;;;;;1.52;86.18;99081.84;124699;1101;65248;-79
2020/12/22 08:55:43;;;;;;;136.73;98.70;;;;;;;1.58;86.07;99082.56;124723;1099;65159;-80
2020/12/22 08:58:10;;;;;;;127.17;91.53;;;;;;;1.64;86.29;99085.89;124726;1101;65156;-80
2020/12/22 09:00:37;;;;;;;131.10;92.17;;;;;;;1.69;86.09;99083.14;124677;1101;65242;-79
2020/12/22 09:03:03;;;;;;;116.27;83.90;;;;;;;1.75;85.87;99073.29;124816;1098;65153;-79
2020/12/22 09:05:31;;;;;;;124.07;90.50;;;;;;;1.85;85.79;99073.88;124723;1101;65613;-79
2020/12/22 09:08:03;;;;;;;138.20;100.20;;;;;;;1.93;85.87;99069.25;124677;1101;65239;-79
2020/12/22 09:10:30;;;;;;;135.20;97.17;;;;;;;2.00;85.33;99079.56;124746;1100;65136;-79
2020/12/22 09:12:57;;;;;;;138.07;104.63;;;;;;;2.02;85.51;99075.12;124681;1101;65233;-79
2020/12/22 09:15:23;;;;;;;151.27;107.97;;;;;;;2.00;84.87;99076.94;124752;1100;65159;-79
2020/12/22 09:17:50;;;;;;;135.40;98.13;;;;;;;2.02;85.33;99077.76;124724;1101;65479;-79
2020/12/22 09:20:22;;;;;;;121.40;88.57;;;;;;;2.03;85.12;99072.47;124684;1101;65204;-79
2020/12/22 09:22:49;;;;;;;121.17;89.07;;;;;;;2.04;85.13;99068.92;124809;1101;65142;-79
2020/12/22 09:25:16;;;;;;;121.67;87.77;;;;;;;2.14;85.46;99065.09;125069;1098;65154;-79
2020/12/22 09:27:42;;;;;;;128.97;95.37;;;;;;;2.25;85.62;99061.27;124754;1099;65175;-79
2020/12/22 09:30:15;;;;;;;134.10;100.05;;;;;;;2.42;85.73;99048.41;124730;1100;65217;-79
2020/12/22 09:32:45;;;;;;;141.15;103.40;;;;;;;2.55;85.36;99047.09;124904;1098;65128;-79
2020/12/22 09:35:11;;;;;;;144.63;102.80;;;;;;;2.58;85.10;99040.87;124892;1099;65155;-79
2020/12/22 09:37:38;;;;;;;141.80;104.03;;;;;;;2.58;85.43;99038.23;124694;1100;65125;-79
2020/12/22 09:40:05;;;;;;;140.53;100.07;;;;;;;2.61;85.11;99032.90;124764;1100;65173;-79
2020/12/22 09:42:31;;;;;;;131.50;93.40;;;;;;;2.67;85.20;99037.09;124721;1100;65160;-79
2020/12/22 09:44:58;;;;;;;125.93;90.07;;;;;;;2.74;85.59;99018.41;124685;1101;65076;-79
2020/12/22 09:47:24;;;;;;;126.10;91.93;;;;;;;2.81;85.56;99021.67;124744;1100;65223;-79
2020/12/22 09:49:50;;;;;;;125.00;91.90;;;;;;;2.84;85.22;99017.17;124734;1100;65299;-79
2020/12/22 09:52:17;;;;;;;132.23;96.43;;;;;;;2.85;85.22;99021.52;124846;1098;65140;-79
2020/12/22 09:54:43;;;;;;;134.23;97.77;;;;;;;2.82;85.27;99015.52;124863;1099;65172;-79
2020/12/22 09:57:10;;;;;;;132.73;99.40;;;;;;;2.80;85.12;99012.06;124862;1100;65102;-79
2020/12/22 09:59:36;;;;;;;125.63;93.90;;;;;;;2.81;85.37;99017.26;124720;1100;65227;-79
2020/12/22 10:02:02;;;;;;;125.12;88.82;;;;;;;2.87;85.41;99021.47;124818;1098;65176;-79
2020/12/22 10:04:29;;;;;;;125.07;90.40;;;;;;;2.86;85.09;99019.73;124898;1100;65175;-81
2020/12/22 10:06:59;;;;;;;111.33;85.00;;;;;;;2.86;85.56;99014.47;124918;1100;65070;-79
2020/12/22 10:09:25;;;;;;;122.30;94.60;;;;;;;2.90;85.22;99015.21;124934;1099;65127;-80
2020/12/22 10:11:52;;;;;;;129.47;102.97;;;;;;;2.93;85.82;99004.60;124908;1099;65136;-80
2020/12/22 10:14:18;;;;;;;137.35;107.05;;;;;;;2.93;85.60;99008.09;124824;1099;65316;-80
2020/12/22 10:16:44;;;;;;;137.87;108.00;;;;;;;2.96;85.56;99007.12;124820;1100;65229;-80
2020/12/22 10:19:11;;;;;;;133.47;99.33;;;;;;;2.99;85.71;98994.69;124905;1098;65118;-80
2020/12/22 10:21:37;;;;;;;131.95;100.45;;;;;;;3.05;86.00;98985.70;124892;1098;65125;-80
2020/12/22 10:24:04;;;;;;;128.20;95.03;;;;;;;3.11;85.61;98987.25;124887;1100;65115;-82
2020/12/22 10:26:32;;;;;;;129.60;98.50;;;;;;;3.17;86.05;98987.91;124804;1100;65209;-82
2020/12/22 10:28:58;;;;;;;133.73;104.60;;;;;;;3.21;85.61;98975.47;124939;1100;65226;-82
2020/12/22 10:31:27;;;;;;;150.73;112.40;;;;;;;3.25;85.86;98972.67;124727;1100;65200;-81
2020/12/22 10:33:56;;;;;;;160.37;118.02;;;;;;;3.28;85.96;98964.65;124830;1100;65236;-80
2020/12/22 10:36:25;;;;;;;168.30;126.67;;;;;;;3.29;85.90;98954.97;124838;1100;65130;-80
2020/12/22 10:38:53;;;;;;;165.55;126.35;;;;;;;3.30;85.71;98948.80;124957;1099;65230;-80
2020/12/22 10:41:22;;;;;;;151.90;113.73;;;;;;;3.29;85.85;98947.06;124813;1100;65236;-80
2020/12/22 10:43:49;;;;;;;139.07;100.30;;;;;;;3.33;85.72;98934.66;124954;1100;65136;-81
2020/12/22 10:46:16;;;;;;;129.57;95.77;;;;;;;3.38;85.88;98932.70;124905;1100;65150;-81
2020/12/22 10:48:44;;;;;;;143.73;101.57;;;;;;;3.35;85.44;98928.41;124855;1100;65265;-81
2020/12/22 10:51:12;;;;;;;143.33;103.07;;;;;;;3.36;85.79;98934.53;124789;1100;65284;-81
2020/12/22 10:53:39;;;;;;;147.60;110.37;;;;;;;3.37;85.59;98939.76;124917;1100;65191;-81
2020/12/22 10:56:14;;;;;;;150.20;110.77;;;;;;;3.39;85.90;98939.67;124887;1100;65259;-80
2020/12/22 10:58:41;;;;;;;144.27;108.73;;;;;;;3.39;85.97;98940.53;124813;1100;65249;-81
2020/12/22 11:01:08;;;;;;;137.20;98.33;;;;;;;3.39;85.90;98951.06;124758;1098;65482;-81
2020/12/22 11:03:35;;;;;;;140.20;100.37;;;;;;;3.38;85.93;98952.00;124875;1100;65408;-81
2020/12/22 11:06:04;;;;;;;131.90;95.53;;;;;;;3.40;86.02;98958.07;124927;1099;65200;-81
2020/12/22 11:08:31;;;;;;;134.07;100.42;;;;;;;3.41;85.42;98958.92;124934;1100;65152;-81
2020/12/22 11:10:58;;;;;;;154.10;112.83;;;;;;;3.39;85.97;98964.23;124940;1100;65175;-81